sensor_id;sensor_type;location;lat;lon;timestamp;P1;durP1;ratioP1;P2;durP2;ratioP2
8009;SDS011;4050;51.160;6.938;2022-07-06T00:01:59;1.17;;;0.97;;
8009;SDS011;4050;51.160;6.938;2022-07-06T00:04:26;2.73;;;1.03;;
8009;SDS011;4050;51.160;6.938;2022-07-06T00:06:54;2.97;;;1.03;;
8009;SDS011;4050;51.160;6.938;2022-07-06T00:09:24;2.03;;;1.20;;
8009;SDS011;4050;51.160;6.938;2022-07-06T00:11:52;3.20;;;1.10;;
8009;SDS011;4050;51.160;6.938;2022-07-06T00:14:20;1.50;;;1.10;;
8009;SDS011;4050;51.160;6.938;2022-07-06T00:16:48;1.27;;;1.13;;
8009;SDS011;4050;51.160;6.938;2022-07-06T00:19:16;2.20;;;1.20;;
8009;SDS011;4050;51.160;6.938;2022-07-06T00:21:44;1.77;;;1.20;;
8009;SDS011;4050;51.160;6.938;2022-07-06T00:24:12;4.83;;;1.50;;
8009;SDS011;4050;51.160;6.938;2022-07-06T00:26:41;1.00;;;1.00;;
8009;SDS011;4050;51.160;6.938;2022-07-06T00:29:09;1.80;;;1.07;;
8009;SDS011;4050;51.160;6.938;2022-07-06T00:31:37;1.40;;;0.97;;
8009;SDS011;4050;51.160;6.938;2022-07-06T00:34:05;1.10;;;0.90;;
8009;SDS011;4050;51.160;6.938;2022-07-06T00:36:32;1.27;;;0.93;;
8009;SDS011;4050;51.160;6.938;2022-07-06T00:39:00;1.00;;;0.90;;
8009;SDS011;4050;51.160;6.938;2022-07-06T00:41:28;3.27;;;1.00;;
8009;SDS011;4050;51.160;6.938;2022-07-06T00:43:57;6.37;;;1.10;;
8009;SDS011;4050;51.160;6.938;2022-07-06T00:46:26;1.37;;;0.80;;
8009;SDS011;4050;51.160;6.938;2022-07-06T00:48:57;3.10;;;1.20;;
8009;SDS011;4050;51.160;6.938;2022-07-06T00:51:27;2.70;;;1.20;;
8009;SDS011;4050;51.160;6.938;2022-07-06T00:53:58;1.63;;;1.23;;
8009;SDS011;4050;51.160;6.938;2022-07-06T00:56:28;2.17;;;1.23;;
8009;SDS011;4050;51.160;6.938;2022-07-06T00:58:59;2.47;;;1.30;;
8009;SDS011;4050;51.160;6.938;2022-07-06T01:01:27;1.23;;;1.10;;
8009;SDS011;4050;51.160;6.938;2022-07-06T01:03:55;1.07;;;0.80;;
8009;SDS011;4050;51.160;6.938;2022-07-06T01:06:23;3.33;;;1.20;;
8009;SDS011;4050;51.160;6.938;2022-07-06T01:08:51;4.13;;;1.40;;
8009;SDS011;4050;51.160;6.938;2022-07-06T01:11:20;2.67;;;1.20;;
8009;SDS011;4050;51.160;6.938;2022-07-06T01:13:48;2.57;;;1.17;;
8009;SDS011;4050;51.160;6.938;2022-07-06T01:16:18;2.37;;;1.27;;
8009;SDS011;4050;51.160;6.938;2022-07-06T01:18:46;3.83;;;1.50;;
8009;SDS011;4050;51.160;6.938;2022-07-06T01:21:15;2.37;;;1.20;;
8009;SDS011;4050;51.160;6.938;2022-07-06T01:23:44;3.20;;;1.80;;
8009;SDS011;4050;51.160;6.938;2022-07-06T01:26:13;4.80;;;1.27;;
8009;SDS011;4050;51.160;6.938;2022-07-06T01:28:42;1.17;;;0.97;;
8009;SDS011;4050;51.160;6.938;2022-07-06T01:31:17;8.60;;;1.27;;
8009;SDS011;4050;51.160;6.938;2022-07-06T01:33:46;3.00;;;1.27;;
8009;SDS011;4050;51.160;6.938;2022-07-06T01:36:17;1.83;;;1.23;;
8009;SDS011;4050;51.160;6.938;2022-07-06T01:38:46;1.93;;;1.30;;
8009;SDS011;4050;51.160;6.938;2022-07-06T01:41:14;3.47;;;1.10;;
8009;SDS011;4050;51.160;6.938;2022-07-06T01:43:42;2.30;;;1.13;;
8009;SDS011;4050;51.160;6.938;2022-07-06T01:46:10;2.23;;;1.27;;
8009;SDS011;4050;51.160;6.938;2022-07-06T01:48:39;2.60;;;1.07;;
8009;SDS011;4050;51.160;6.938;2022-07-06T01:51:07;2.10;;;1.47;;
8009;SDS011;4050;51.160;6.938;2022-07-06T01:53:37;2.10;;;1.13;;
8009;SDS011;4050;51.160;6.938;2022-07-06T01:56:05;1.53;;;1.20;;
8009;SDS011;4050;51.160;6.938;2022-07-06T01:58:34;1.20;;;1.00;;
8009;SDS011;4050;51.160;6.938;2022-07-06T02:01:06;3.40;;;1.40;;
8009;SDS011;4050;51.160;6.938;2022-07-06T02:03:35;1.43;;;1.10;;
8009;SDS011;4050;51.160;6.938;2022-07-06T02:06:03;2.47;;;1.23;;
8009;SDS011;4050;51.160;6.938;2022-07-06T02:08:32;1.27;;;0.93;;
8009;SDS011;4050;51.160;6.938;2022-07-06T02:11:02;2.27;;;1.20;;
8009;SDS011;4050;51.160;6.938;2022-07-06T02:13:30;1.33;;;1.20;;
8009;SDS011;4050;51.160;6.938;2022-07-06T02:15:58;2.77;;;1.43;;
8009;SDS011;4050;51.160;6.938;2022-07-06T02:18:26;2.00;;;0.83;;
8009;SDS011;4050;51.160;6.938;2022-07-06T02:20:54;4.30;;;1.60;;
8009;SDS011;4050;51.160;6.938;2022-07-06T02:23:22;3.17;;;1.23;;
8009;SDS011;4050;51.160;6.938;2022-07-06T02:25:52;2.83;;;2.33;;
8009;SDS011;4050;51.160;6.938;2022-07-06T02:28:21;4.40;;;1.30;;
8009;SDS011;4050;51.160;6.938;2022-07-06T02:30:50;3.57;;;1.57;;
8009;SDS011;4050;51.160;6.938;2022-07-06T02:33:18;5.80;;;1.80;;
8009;SDS011;4050;51.160;6.938;2022-07-06T02:35:46;1.97;;;1.50;;
8009;SDS011;4050;51.160;6.938;2022-07-06T02:38:14;1.83;;;1.33;;
8009;SDS011;4050;51.160;6.938;2022-07-06T02:40:42;3.33;;;1.77;;
8009;SDS011;4050;51.160;6.938;2022-07-06T02:43:09;2.43;;;1.70;;
8009;SDS011;4050;51.160;6.938;2022-07-06T02:45:39;1.53;;;1.30;;
8009;SDS011;4050;51.160;6.938;2022-07-06T02:48:07;2.20;;;1.50;;
8009;SDS011;4050;51.160;6.938;2022-07-06T02:50:35;3.80;;;1.40;;
8009;SDS011;4050;51.160;6.938;2022-07-06T02:53:02;3.10;;;1.50;;
8009;SDS011;4050;51.160;6.938;2022-07-06T02:55:30;1.80;;;1.33;;
8009;SDS011;4050;51.160;6.938;2022-07-06T02:57:58;3.37;;;1.53;;
8009;SDS011;4050;51.160;6.938;2022-07-06T03:00:26;2.67;;;1.43;;
8009;SDS011;4050;51.160;6.938;2022-07-06T03:02:55;4.40;;;1.60;;
8009;SDS011;4050;51.160;6.938;2022-07-06T03:05:23;2.57;;;1.47;;
8009;SDS011;4050;51.160;6.938;2022-07-06T03:07:51;1.30;;;1.20;;
8009;SDS011;4050;51.160;6.938;2022-07-06T03:10:19;2.00;;;1.50;;
8009;SDS011;4050;51.160;6.938;2022-07-06T03:12:47;1.20;;;1.10;;
8009;SDS011;4050;51.160;6.938;2022-07-06T03:15:15;1.30;;;1.20;;
8009;SDS011;4050;51.160;6.938;2022-07-06T03:17:43;2.77;;;1.40;;
8009;SDS011;4050;51.160;6.938;2022-07-06T03:20:12;3.93;;;1.63;;
8009;SDS011;4050;51.160;6.938;2022-07-06T03:22:40;1.70;;;1.20;;
8009;SDS011;4050;51.160;6.938;2022-07-06T03:25:08;2.80;;;1.17;;
8009;SDS011;4050;51.160;6.938;2022-07-06T03:27:36;1.37;;;1.20;;
8009;SDS011;4050;51.160;6.938;2022-07-06T03:30:04;3.13;;;1.43;;
8009;SDS011;4050;51.160;6.938;2022-07-06T03:32:39;2.27;;;1.30;;
8009;SDS011;4050;51.160;6.938;2022-07-06T03:35:07;2.37;;;1.63;;
8009;SDS011;4050;51.160;6.938;2022-07-06T03:37:37;2.73;;;1.43;;
8009;SDS011;4050;51.160;6.938;2022-07-06T03:40:05;2.00;;;1.40;;
8009;SDS011;4050;51.160;6.938;2022-07-06T03:42:34;5.07;;;1.80;;
8009;SDS011;4050;51.160;6.938;2022-07-06T03:45:03;1.47;;;1.00;;
8009;SDS011;4050;51.160;6.938;2022-07-06T03:47:31;2.90;;;1.63;;
8009;SDS011;4050;51.160;6.938;2022-07-06T03:49:59;1.87;;;1.23;;
8009;SDS011;4050;51.160;6.938;2022-07-06T03:52:27;1.40;;;1.30;;
8009;SDS011;4050;51.160;6.938;2022-07-06T03:54:56;3.67;;;1.50;;
8009;SDS011;4050;51.160;6.938;2022-07-06T03:57:26;2.87;;;1.30;;
8009;SDS011;4050;51.160;6.938;2022-07-06T03:59:54;1.37;;;1.27;;
8009;SDS011;4050;51.160;6.938;2022-07-06T04:02:22;3.07;;;1.43;;
8009;SDS011;4050;51.160;6.938;2022-07-06T04:04:50;1.40;;;1.30;;
8009;SDS011;4050;51.160;6.938;2022-07-06T04:07:18;2.30;;;1.50;;
8009;SDS011;4050;51.160;6.938;2022-07-06T04:09:46;1.90;;;1.50;;
8009;SDS011;4050;51.160;6.938;2022-07-06T04:12:15;5.17;;;1.57;;
8009;SDS011;4050;51.160;6.938;2022-07-06T04:14:43;1.63;;;1.30;;
8009;SDS011;4050;51.160;6.938;2022-07-06T04:17:10;1.23;;;1.13;;
8009;SDS011;4050;51.160;6.938;2022-07-06T04:19:56;3.10;;;1.40;;
8009;SDS011;4050;51.160;6.938;2022-07-06T04:22:24;2.20;;;1.20;;
8009;SDS011;4050;51.160;6.938;2022-07-06T04:24:52;1.73;;;1.27;;
8009;SDS011;4050;51.160;6.938;2022-07-06T04:27:21;4.40;;;1.47;;
8009;SDS011;4050;51.160;6.938;2022-07-06T04:29:49;3.77;;;1.20;;
8009;SDS011;4050;51.160;6.938;2022-07-06T04:32:18;2.60;;;1.20;;
8009;SDS011;4050;51.160;6.938;2022-07-06T04:34:51;2.47;;;1.50;;
8009;SDS011;4050;51.160;6.938;2022-07-06T04:37:18;2.10;;;1.20;;
8009;SDS011;4050;51.160;6.938;2022-07-06T04:39:46;4.30;;;1.10;;
8009;SDS011;4050;51.160;6.938;2022-07-06T04:42:14;3.43;;;1.33;;
8009;SDS011;4050;51.160;6.938;2022-07-06T04:44:44;2.80;;;1.20;;
8009;SDS011;4050;51.160;6.938;2022-07-06T04:47:12;1.67;;;1.13;;
8009;SDS011;4050;51.160;6.938;2022-07-06T04:49:40;1.30;;;1.20;;
8009;SDS011;4050;51.160;6.938;2022-07-06T04:52:07;2.40;;;1.37;;
8009;SDS011;4050;51.160;6.938;2022-07-06T04:54:36;2.30;;;1.33;;
8009;SDS011;4050;51.160;6.938;2022-07-06T04:57:04;1.97;;;1.43;;
8009;SDS011;4050;51.160;6.938;2022-07-06T04:59:38;7.37;;;1.73;;
8009;SDS011;4050;51.160;6.938;2022-07-06T05:02:07;2.27;;;1.30;;
8009;SDS011;4050;51.160;6.938;2022-07-06T05:04:35;2.80;;;1.50;;
8009;SDS011;4050;51.160;6.938;2022-07-06T05:07:03;3.27;;;1.60;;
8009;SDS011;4050;51.160;6.938;2022-07-06T05:09:31;3.77;;;1.53;;
8009;SDS011;4050;51.160;6.938;2022-07-06T05:11:59;2.37;;;1.70;;
8009;SDS011;4050;51.160;6.938;2022-07-06T05:14:26;4.70;;;1.67;;
8009;SDS011;4050;51.160;6.938;2022-07-06T05:16:54;1.40;;;1.13;;
8009;SDS011;4050;51.160;6.938;2022-07-06T05:19:23;2.43;;;1.40;;
8009;SDS011;4050;51.160;6.938;2022-07-06T05:21:51;2.63;;;1.33;;
8009;SDS011;4050;51.160;6.938;2022-07-06T05:24:19;1.60;;;1.30;;
8009;SDS011;4050;51.160;6.938;2022-07-06T05:26:47;2.23;;;1.30;;
8009;SDS011;4050;51.160;6.938;2022-07-06T05:29:15;2.63;;;1.47;;
8009;SDS011;4050;51.160;6.938;2022-07-06T05:31:43;2.07;;;1.30;;
8009;SDS011;4050;51.160;6.938;2022-07-06T05:34:10;2.07;;;1.23;;
8009;SDS011;4050;51.160;6.938;2022-07-06T05:36:40;3.93;;;1.20;;
8009;SDS011;4050;51.160;6.938;2022-07-06T05:39:07;1.87;;;1.17;;
8009;SDS011;4050;51.160;6.938;2022-07-06T05:41:35;3.63;;;1.30;;
8009;SDS011;4050;51.160;6.938;2022-07-06T05:44:03;1.10;;;0.90;;
8009;SDS011;4050;51.160;6.938;2022-07-06T05:46:31;1.50;;;0.97;;
8009;SDS011;4050;51.160;6.938;2022-07-06T05:48:59;4.40;;;1.33;;
8009;SDS011;4050;51.160;6.938;2022-07-06T05:51:46;1.40;;;1.10;;
8009;SDS011;4050;51.160;6.938;2022-07-06T05:54:15;3.70;;;1.80;;
8009;SDS011;4050;51.160;6.938;2022-07-06T05:56:43;4.03;;;1.30;;
8009;SDS011;4050;51.160;6.938;2022-07-06T05:59:11;1.57;;;1.10;;
8009;SDS011;4050;51.160;6.938;2022-07-06T06:01:39;1.67;;;1.03;;
8009;SDS011;4050;51.160;6.938;2022-07-06T06:04:07;4.07;;;1.20;;
8009;SDS011;4050;51.160;6.938;2022-07-06T06:06:35;2.20;;;0.97;;
8009;SDS011;4050;51.160;6.938;2022-07-06T06:09:04;1.20;;;0.90;;
8009;SDS011;4050;51.160;6.938;2022-07-06T06:11:32;3.57;;;1.03;;
8009;SDS011;4050;51.160;6.938;2022-07-06T06:14:00;1.67;;;0.77;;
8009;SDS011;4050;51.160;6.938;2022-07-06T06:16:27;1.27;;;0.95;;
8009;SDS011;4050;51.160;6.938;2022-07-06T06:18:56;1.45;;;0.90;;
8009;SDS011;4050;51.160;6.938;2022-07-06T06:21:23;2.08;;;0.98;;
8009;SDS011;4050;51.160;6.938;2022-07-06T06:23:51;2.67;;;0.82;;
8009;SDS011;4050;51.160;6.938;2022-07-06T06:26:20;2.28;;;0.70;;
8009;SDS011;4050;51.160;6.938;2022-07-06T06:28:49;1.00;;;0.57;;
8009;SDS011;4050;51.160;6.938;2022-07-06T06:31:16;2.47;;;1.10;;
8009;SDS011;4050;51.160;6.938;2022-07-06T06:33:44;0.30;;;0.30;;
8009;SDS011;4050;51.160;6.938;2022-07-06T06:36:12;0.70;;;0.55;;
8009;SDS011;4050;51.160;6.938;2022-07-06T06:38:40;0.93;;;0.43;;
8009;SDS011;4050;51.160;6.938;2022-07-06T06:41:08;1.27;;;0.40;;
8009;SDS011;4050;51.160;6.938;2022-07-06T06:43:37;0.70;;;0.57;;
8009;SDS011;4050;51.160;6.938;2022-07-06T06:46:05;2.33;;;0.80;;
8009;SDS011;4050;51.160;6.938;2022-07-06T06:48:33;1.30;;;0.68;;
8009;SDS011;4050;51.160;6.938;2022-07-06T06:51:01;1.20;;;0.50;;
8009;SDS011;4050;51.160;6.938;2022-07-06T06:53:30;1.75;;;0.75;;
8009;SDS011;4050;51.160;6.938;2022-07-06T06:56:05;1.02;;;0.50;;
8009;SDS011;4050;51.160;6.938;2022-07-06T06:58:33;0.80;;;0.55;;
8009;SDS011;4050;51.160;6.938;2022-07-06T07:01:22;1.38;;;0.73;;
8009;SDS011;4050;51.160;6.938;2022-07-06T07:03:51;0.75;;;0.40;;
8009;SDS011;4050;51.160;6.938;2022-07-06T07:06:19;1.05;;;0.30;;
8009;SDS011;4050;51.160;6.938;2022-07-06T07:08:47;0.65;;;0.40;;
8009;SDS011;4050;51.160;6.938;2022-07-06T07:11:14;0.35;;;0.35;;
8009;SDS011;4050;51.160;6.938;2022-07-06T07:13:42;0.95;;;0.50;;
8009;SDS011;4050;51.160;6.938;2022-07-06T07:16:10;0.80;;;0.60;;
8009;SDS011;4050;51.160;6.938;2022-07-06T07:18:40;1.30;;;0.43;;
8009;SDS011;4050;51.160;6.938;2022-07-06T07:21:07;1.40;;;0.40;;
8009;SDS011;4050;51.160;6.938;2022-07-06T07:23:35;2.10;;;0.80;;
8009;SDS011;4050;51.160;6.938;2022-07-06T07:26:03;1.80;;;0.73;;
8009;SDS011;4050;51.160;6.938;2022-07-06T07:28:31;1.23;;;0.87;;
8009;SDS011;4050;51.160;6.938;2022-07-06T07:30:59;1.30;;;0.43;;
8009;SDS011;4050;51.160;6.938;2022-07-06T07:33:27;1.23;;;0.43;;
8009;SDS011;4050;51.160;6.938;2022-07-06T07:35:56;1.50;;;0.33;;
8009;SDS011;4050;51.160;6.938;2022-07-06T07:38:24;2.27;;;0.40;;
8009;SDS011;4050;51.160;6.938;2022-07-06T07:40:53;0.30;;;0.30;;
8009;SDS011;4050;51.160;6.938;2022-07-06T07:43:21;2.50;;;0.50;;
8009;SDS011;4050;51.160;6.938;2022-07-06T07:45:49;1.57;;;0.53;;
8009;SDS011;4050;51.160;6.938;2022-07-06T07:48:16;0.40;;;0.40;;
8009;SDS011;4050;51.160;6.938;2022-07-06T07:50:44;2.43;;;0.70;;
8009;SDS011;4050;51.160;6.938;2022-07-06T07:53:14;2.50;;;0.60;;
8009;SDS011;4050;51.160;6.938;2022-07-06T07:55:41;0.60;;;0.30;;
8009;SDS011;4050;51.160;6.938;2022-07-06T07:58:09;1.83;;;0.60;;
8009;SDS011;4050;51.160;6.938;2022-07-06T08:00:37;0.97;;;0.40;;
8009;SDS011;4050;51.160;6.938;2022-07-06T08:03:05;0.67;;;0.40;;
8009;SDS011;4050;51.160;6.938;2022-07-06T08:05:33;0.43;;;0.27;;
8009;SDS011;4050;51.160;6.938;2022-07-06T08:08:01;1.23;;;0.40;;
8009;SDS011;4050;51.160;6.938;2022-07-06T08:10:30;2.00;;;0.40;;
8009;SDS011;4050;51.160;6.938;2022-07-06T08:13:17;1.00;;;0.40;;
8009;SDS011;4050;51.160;6.938;2022-07-06T08:15:45;1.07;;;0.30;;
8009;SDS011;4050;51.160;6.938;2022-07-06T08:18:13;2.10;;;0.73;;
8009;SDS011;4050;51.160;6.938;2022-07-06T08:20:41;0.53;;;0.43;;
8009;SDS011;4050;51.160;6.938;2022-07-06T08:23:29;0.40;;;0.30;;
8009;SDS011;4050;51.160;6.938;2022-07-06T08:25:58;0.63;;;0.30;;
8009;SDS011;4050;51.160;6.938;2022-07-06T08:28:26;0.63;;;0.50;;
8009;SDS011;4050;51.160;6.938;2022-07-06T08:30:54;0.85;;;0.40;;
8009;SDS011;4050;51.160;6.938;2022-07-06T08:33:22;4.00;;;0.60;;
8009;SDS011;4050;51.160;6.938;2022-07-06T08:35:51;0.30;;;0.30;;
8009;SDS011;4050;51.160;6.938;2022-07-06T08:38:18;0.60;;;0.20;;
8009;SDS011;4050;51.160;6.938;2022-07-06T08:40:47;0.85;;;0.30;;
8009;SDS011;4050;51.160;6.938;2022-07-06T08:43:18;0.45;;;0.30;;
8009;SDS011;4050;51.160;6.938;2022-07-06T08:45:46;0.77;;;0.40;;
8009;SDS011;4050;51.160;6.938;2022-07-06T08:48:18;1.15;;;0.47;;
8009;SDS011;4050;51.160;6.938;2022-07-06T08:50:49;1.38;;;0.68;;
8009;SDS011;4050;51.160;6.938;2022-07-06T08:53:19;0.47;;;0.38;;
8009;SDS011;4050;51.160;6.938;2022-07-06T08:55:48;0.32;;;0.30;;
8009;SDS011;4050;51.160;6.938;2022-07-06T08:58:18;0.30;;;0.30;;
8009;SDS011;4050;51.160;6.938;2022-07-06T09:00:46;0.55;;;0.55;;
8009;SDS011;4050;51.160;6.938;2022-07-06T09:03:14;0.77;;;0.20;;
8009;SDS011;4050;51.160;6.938;2022-07-06T09:05:42;0.95;;;0.40;;
8009;SDS011;4050;51.160;6.938;2022-07-06T09:08:20;0.20;;;0.20;;
8009;SDS011;4050;51.160;6.938;2022-07-06T09:10:49;0.70;;;0.30;;
8009;SDS011;4050;51.160;6.938;2022-07-06T09:13:18;0.57;;;0.20;;
8009;SDS011;4050;51.160;6.938;2022-07-06T09:15:46;1.05;;;0.70;;
8009;SDS011;4050;51.160;6.938;2022-07-06T09:18:14;0.40;;;0.38;;
8009;SDS011;4050;51.160;6.938;2022-07-06T09:20:42;0.65;;;0.40;;
8009;SDS011;4050;51.160;6.938;2022-07-06T09:23:10;0.63;;;0.38;;
8009;SDS011;4050;51.160;6.938;2022-07-06T09:25:43;0.75;;;0.40;;
8009;SDS011;4050;51.160;6.938;2022-07-06T09:28:16;0.30;;;0.30;;
8009;SDS011;4050;51.160;6.938;2022-07-06T09:30:45;1.75;;;0.30;;
8009;SDS011;4050;51.160;6.938;2022-07-06T09:33:13;0.73;;;0.55;;
8009;SDS011;4050;51.160;6.938;2022-07-06T09:35:45;0.40;;;0.25;;
8009;SDS011;4050;51.160;6.938;2022-07-06T09:38:14;1.42;;;0.30;;
8009;SDS011;4050;51.160;6.938;2022-07-06T09:40:43;0.98;;;0.38;;
8009;SDS011;4050;51.160;6.938;2022-07-06T09:43:13;0.43;;;0.30;;
8009;SDS011;4050;51.160;6.938;2022-07-06T09:45:42;0.30;;;0.20;;
8009;SDS011;4050;51.160;6.938;2022-07-06T09:48:13;0.45;;;0.45;;
8009;SDS011;4050;51.160;6.938;2022-07-06T09:50:45;2.00;;;0.20;;
8009;SDS011;4050;51.160;6.938;2022-07-06T09:53:14;0.32;;;0.32;;
8009;SDS011;4050;51.160;6.938;2022-07-06T09:55:43;0.75;;;0.32;;
8009;SDS011;4050;51.160;6.938;2022-07-06T09:58:11;0.90;;;0.50;;
8009;SDS011;4050;51.160;6.938;2022-07-06T10:00:40;0.90;;;0.40;;
8009;SDS011;4050;51.160;6.938;2022-07-06T10:03:07;0.43;;;0.43;;
8009;SDS011;4050;51.160;6.938;2022-07-06T10:05:37;0.60;;;0.43;;
8009;SDS011;4050;51.160;6.938;2022-07-06T10:08:07;0.25;;;0.20;;
8009;SDS011;4050;51.160;6.938;2022-07-06T10:10:37;0.57;;;0.20;;
8009;SDS011;4050;51.160;6.938;2022-07-06T10:13:05;0.30;;;0.30;;
8009;SDS011;4050;51.160;6.938;2022-07-06T10:15:35;0.80;;;0.60;;
8009;SDS011;4050;51.160;6.938;2022-07-06T10:18:05;0.57;;;0.43;;
8009;SDS011;4050;51.160;6.938;2022-07-06T10:20:35;0.65;;;0.38;;
8009;SDS011;4050;51.160;6.938;2022-07-06T10:23:06;0.50;;;0.50;;
8009;SDS011;4050;51.160;6.938;2022-07-06T10:25:35;0.20;;;0.20;;
8009;SDS011;4050;51.160;6.938;2022-07-06T10:28:03;0.35;;;0.35;;
8009;SDS011;4050;51.160;6.938;2022-07-06T10:30:40;0.30;;;0.30;;
8009;SDS011;4050;51.160;6.938;2022-07-06T10:33:09;0.35;;;0.30;;
8009;SDS011;4050;51.160;6.938;2022-07-06T10:35:41;2.35;;;0.47;;
8009;SDS011;4050;51.160;6.938;2022-07-06T10:38:10;0.68;;;0.20;;
8009;SDS011;4050;51.160;6.938;2022-07-06T10:40:39;0.50;;;0.30;;
8009;SDS011;4050;51.160;6.938;2022-07-06T10:43:30;0.47;;;0.38;;
8009;SDS011;4050;51.160;6.938;2022-07-06T10:46:01;0.77;;;0.50;;
8009;SDS011;4050;51.160;6.938;2022-07-06T10:48:37;1.73;;;0.60;;
8009;SDS011;4050;51.160;6.938;2022-07-06T10:51:07;0.45;;;0.40;;
8009;SDS011;4050;51.160;6.938;2022-07-06T10:53:36;0.60;;;0.40;;
8009;SDS011;4050;51.160;6.938;2022-07-06T10:56:06;2.28;;;0.60;;
8009;SDS011;4050;51.160;6.938;2022-07-06T10:58:38;3.25;;;0.63;;
8009;SDS011;4050;51.160;6.938;2022-07-06T11:01:08;1.23;;;0.60;;
8009;SDS011;4050;51.160;6.938;2022-07-06T11:03:38;0.93;;;0.40;;
8009;SDS011;4050;51.160;6.938;2022-07-06T11:06:11;0.35;;;0.35;;
8009;SDS011;4050;51.160;6.938;2022-07-06T11:08:42;0.52;;;0.38;;
8009;SDS011;4050;51.160;6.938;2022-07-06T11:11:11;0.35;;;0.35;;
8009;SDS011;4050;51.160;6.938;2022-07-06T11:13:47;0.70;;;0.47;;
8009;SDS011;4050;51.160;6.938;2022-07-06T11:16:16;1.25;;;0.50;;
8009;SDS011;4050;51.160;6.938;2022-07-06T11:18:46;0.68;;;0.30;;
8009;SDS011;4050;51.160;6.938;2022-07-06T11:21:17;0.95;;;0.57;;
8009;SDS011;4050;51.160;6.938;2022-07-06T11:23:47;1.33;;;0.50;;
8009;SDS011;4050;51.160;6.938;2022-07-06T11:26:16;0.65;;;0.52;;
8009;SDS011;4050;51.160;6.938;2022-07-06T11:28:45;0.93;;;0.50;;
8009;SDS011;4050;51.160;6.938;2022-07-06T11:31:15;0.65;;;0.40;;
8009;SDS011;4050;51.160;6.938;2022-07-06T11:33:44;0.60;;;0.22;;
8009;SDS011;4050;51.160;6.938;2022-07-06T11:36:14;0.30;;;0.30;;
8009;SDS011;4050;51.160;6.938;2022-07-06T11:38:45;1.45;;;0.40;;
8009;SDS011;4050;51.160;6.938;2022-07-06T11:41:14;0.50;;;0.40;;
8009;SDS011;4050;51.160;6.938;2022-07-06T11:43:43;0.60;;;0.30;;
8009;SDS011;4050;51.160;6.938;2022-07-06T11:46:19;1.02;;;0.68;;
8009;SDS011;4050;51.160;6.938;2022-07-06T11:48:52;0.75;;;0.40;;
8009;SDS011;4050;51.160;6.938;2022-07-06T11:51:21;0.35;;;0.30;;
8009;SDS011;4050;51.160;6.938;2022-07-06T11:53:52;0.20;;;0.20;;
8009;SDS011;4050;51.160;6.938;2022-07-06T11:56:21;0.40;;;0.40;;
8009;SDS011;4050;51.160;6.938;2022-07-06T11:58:52;0.45;;;0.45;;
8009;SDS011;4050;51.160;6.938;2022-07-06T12:01:21;0.30;;;0.30;;
8009;SDS011;4050;51.160;6.938;2022-07-06T12:03:50;0.38;;;0.30;;
8009;SDS011;4050;51.160;6.938;2022-07-06T12:06:19;0.63;;;0.50;;
8009;SDS011;4050;51.160;6.938;2022-07-06T12:08:49;1.10;;;0.55;;
8009;SDS011;4050;51.160;6.938;2022-07-06T12:11:20;2.42;;;0.40;;
8009;SDS011;4050;51.160;6.938;2022-07-06T12:13:49;0.30;;;0.30;;
8009;SDS011;4050;51.160;6.938;2022-07-06T12:16:18;0.30;;;0.30;;
8009;SDS011;4050;51.160;6.938;2022-07-06T12:18:47;1.23;;;0.80;;
8009;SDS011;4050;51.160;6.938;2022-07-06T12:21:15;0.50;;;0.50;;
8009;SDS011;4050;51.160;6.938;2022-07-06T12:23:48;0.80;;;0.40;;
8009;SDS011;4050;51.160;6.938;2022-07-06T12:26:19;0.22;;;0.20;;
8009;SDS011;4050;51.160;6.938;2022-07-06T12:28:58;0.25;;;0.25;;
8009;SDS011;4050;51.160;6.938;2022-07-06T12:31:30;1.10;;;0.52;;
8009;SDS011;4050;51.160;6.938;2022-07-06T12:34:01;0.43;;;0.30;;
8009;SDS011;4050;51.160;6.938;2022-07-06T12:36:29;0.63;;;0.38;;
8009;SDS011;4050;51.160;6.938;2022-07-06T12:38:59;0.52;;;0.45;;
8009;SDS011;4050;51.160;6.938;2022-07-06T12:41:27;0.50;;;0.20;;
8009;SDS011;4050;51.160;6.938;2022-07-06T12:44:00;0.43;;;0.30;;
8009;SDS011;4050;51.160;6.938;2022-07-06T12:46:33;0.65;;;0.40;;
8009;SDS011;4050;51.160;6.938;2022-07-06T12:49:06;1.67;;;0.45;;
8009;SDS011;4050;51.160;6.938;2022-07-06T12:51:48;0.38;;;0.38;;
8009;SDS011;4050;51.160;6.938;2022-07-06T12:54:26;0.30;;;0.30;;
8009;SDS011;4050;51.160;6.938;2022-07-06T12:57:06;0.60;;;0.47;;
8009;SDS011;4050;51.160;6.938;2022-07-06T12:59:36;1.15;;;0.40;;
8009;SDS011;4050;51.160;6.938;2022-07-06T13:02:06;0.30;;;0.30;;
8009;SDS011;4050;51.160;6.938;2022-07-06T13:04:36;0.45;;;0.32;;
8009;SDS011;4050;51.160;6.938;2022-07-06T13:07:04;1.30;;;0.52;;
8009;SDS011;4050;51.160;6.938;2022-07-06T13:09:34;0.47;;;0.30;;
8009;SDS011;4050;51.160;6.938;2022-07-06T13:12:03;0.93;;;0.50;;
8009;SDS011;4050;51.160;6.938;2022-07-06T13:14:31;0.57;;;0.47;;
8009;SDS011;4050;51.160;6.938;2022-07-06T13:16:59;1.10;;;0.90;;
8009;SDS011;4050;51.160;6.938;2022-07-06T13:19:27;0.65;;;0.38;;
8009;SDS011;4050;51.160;6.938;2022-07-06T13:21:55;0.25;;;0.25;;
8009;SDS011;4050;51.160;6.938;2022-07-06T13:24:26;0.75;;;0.40;;
8009;SDS011;4050;51.160;6.938;2022-07-06T13:26:59;0.75;;;0.30;;
8009;SDS011;4050;51.160;6.938;2022-07-06T13:29:26;1.58;;;0.47;;
8009;SDS011;4050;51.160;6.938;2022-07-06T13:31:55;0.30;;;0.30;;
8009;SDS011;4050;51.160;6.938;2022-07-06T13:34:22;0.65;;;0.40;;
8009;SDS011;4050;51.160;6.938;2022-07-06T13:36:51;0.88;;;0.60;;
8009;SDS011;4050;51.160;6.938;2022-07-06T13:39:19;0.40;;;0.40;;
8009;SDS011;4050;51.160;6.938;2022-07-06T13:41:47;2.00;;;0.32;;
8009;SDS011;4050;51.160;6.938;2022-07-06T13:44:16;1.98;;;0.30;;
8009;SDS011;4050;51.160;6.938;2022-07-06T13:46:44;0.73;;;0.40;;
8009;SDS011;4050;51.160;6.938;2022-07-06T13:49:12;1.17;;;0.55;;
8009;SDS011;4050;51.160;6.938;2022-07-06T13:51:40;0.60;;;0.40;;
8009;SDS011;4050;51.160;6.938;2022-07-06T13:54:08;0.63;;;0.50;;
8009;SDS011;4050;51.160;6.938;2022-07-06T13:56:37;1.30;;;0.45;;
8009;SDS011;4050;51.160;6.938;2022-07-06T13:59:05;1.48;;;0.30;;
8009;SDS011;4050;51.160;6.938;2022-07-06T14:01:35;3.13;;;0.57;;
8009;SDS011;4050;51.160;6.938;2022-07-06T14:04:03;1.00;;;0.70;;
8009;SDS011;4050;51.160;6.938;2022-07-06T14:06:31;0.77;;;0.50;;
8009;SDS011;4050;51.160;6.938;2022-07-06T14:08:59;1.27;;;0.40;;
8009;SDS011;4050;51.160;6.938;2022-07-06T14:11:28;1.00;;;0.30;;
8009;SDS011;4050;51.160;6.938;2022-07-06T14:13:56;0.47;;;0.20;;
8009;SDS011;4050;51.160;6.938;2022-07-06T14:16:24;0.70;;;0.40;;
8009;SDS011;4050;51.160;6.938;2022-07-06T14:18:53;0.43;;;0.43;;
8009;SDS011;4050;51.160;6.938;2022-07-06T14:21:21;0.30;;;0.30;;
8009;SDS011;4050;51.160;6.938;2022-07-06T14:23:49;0.37;;;0.37;;
8009;SDS011;4050;51.160;6.938;2022-07-06T14:26:16;0.93;;;0.40;;
8009;SDS011;4050;51.160;6.938;2022-07-06T14:28:44;0.30;;;0.30;;
8009;SDS011;4050;51.160;6.938;2022-07-06T14:31:12;0.63;;;0.57;;
8009;SDS011;4050;51.160;6.938;2022-07-06T14:33:46;0.20;;;0.20;;
8009;SDS011;4050;51.160;6.938;2022-07-06T14:36:16;0.70;;;0.40;;
8009;SDS011;4050;51.160;6.938;2022-07-06T14:38:45;0.63;;;0.50;;
8009;SDS011;4050;51.160;6.938;2022-07-06T14:41:13;1.25;;;0.32;;
8009;SDS011;4050;51.160;6.938;2022-07-06T14:43:41;0.55;;;0.50;;
8009;SDS011;4050;51.160;6.938;2022-07-06T14:46:09;2.60;;;0.50;;
8009;SDS011;4050;51.160;6.938;2022-07-06T14:48:37;0.60;;;0.40;;
8009;SDS011;4050;51.160;6.938;2022-07-06T14:51:06;0.80;;;0.60;;
8009;SDS011;4050;51.160;6.938;2022-07-06T14:53:36;0.43;;;0.30;;
8009;SDS011;4050;51.160;6.938;2022-07-06T14:56:04;1.63;;;0.47;;
8009;SDS011;4050;51.160;6.938;2022-07-06T14:58:32;0.30;;;0.30;;
8009;SDS011;4050;51.160;6.938;2022-07-06T15:01:00;0.68;;;0.50;;
8009;SDS011;4050;51.160;6.938;2022-07-06T15:03:28;0.60;;;0.47;;
8009;SDS011;4050;51.160;6.938;2022-07-06T15:05:59;1.85;;;0.50;;
8009;SDS011;4050;51.160;6.938;2022-07-06T15:08:27;1.27;;;0.50;;
8009;SDS011;4050;51.160;6.938;2022-07-06T15:10:56;0.43;;;0.30;;
8009;SDS011;4050;51.160;6.938;2022-07-06T15:13:24;0.30;;;0.30;;
8009;SDS011;4050;51.160;6.938;2022-07-06T15:15:53;2.83;;;0.60;;
8009;SDS011;4050;51.160;6.938;2022-07-06T15:18:23;1.80;;;0.50;;
8009;SDS011;4050;51.160;6.938;2022-07-06T15:20:52;0.68;;;0.30;;
8009;SDS011;4050;51.160;6.938;2022-07-06T15:23:21;0.47;;;0.20;;
8009;SDS011;4050;51.160;6.938;2022-07-06T15:25:49;0.30;;;0.30;;
8009;SDS011;4050;51.160;6.938;2022-07-06T15:28:23;1.43;;;0.40;;